sensor_id;sensor_type;location;lat;lon;timestamp;pressure;altitude;pressure_sealevel;temperature;humidity
52653;BME280;39353;42.864;12.014;2023-02-27T00:00:34;96462.66;;;22.70;51.24
52653;BME280;39353;42.864;12.014;2023-02-27T00:03:21;96468.52;;;22.66;51.29
52653;BME280;39353;42.864;12.014;2023-02-27T00:06:03;96467.59;;;22.63;51.29
52653;BME280;39353;42.864;12.014;2023-02-27T00:08:44;96467.08;;;22.59;51.07
52653;BME280;39353;42.864;12.014;2023-02-27T00:11:26;96468.20;;;22.56;51.16
52653;BME280;39353;42.864;12.014;2023-02-27T00:14:08;96476.22;;;22.54;51.39
52653;BME280;39353;42.864;12.014;2023-02-27T00:16:35;96483.86;;;22.52;51.15
52653;BME280;39353;42.864;12.014;2023-02-27T00:19:03;96483.39;;;22.49;51.18
52653;BME280;39353;42.864;12.014;2023-02-27T00:21:31;96486.27;;;22.46;51.43
52653;BME280;39353;42.864;12.014;2023-02-27T00:24:12;96491.34;;;22.44;51.39
52653;BME280;39353;42.864;12.014;2023-02-27T00:26:40;96499.63;;;22.42;51.39
52653;BME280;39353;42.864;12.014;2023-02-27T00:29:21;96502.84;;;22.39;51.57
52653;BME280;39353;42.864;12.014;2023-02-27T00:32:05;96503.44;;;22.37;51.51
52653;BME280;39353;42.864;12.014;2023-02-27T00:34:33;96502.50;;;22.35;51.63
52653;BME280;39353;42.864;12.014;2023-02-27T00:37:14;96506.58;;;22.32;51.44
52653;BME280;39353;42.864;12.014;2023-02-27T00:39:58;96509.52;;;22.30;51.51
52653;BME280;39353;42.864;12.014;2023-02-27T00:42:39;96511.83;;;22.27;51.49
52653;BME280;39353;42.864;12.014;2023-02-27T00:45:08;96512.67;;;22.24;51.59
52653;BME280;39353;42.864;12.014;2023-02-27T00:47:35;96519.76;;;22.22;51.50
52653;BME280;39353;42.864;12.014;2023-02-27T00:50:17;96527.13;;;22.21;51.67
52653;BME280;39353;42.864;12.014;2023-02-27T00:52:44;96536.17;;;22.19;51.48
52653;BME280;39353;42.864;12.014;2023-02-27T00:55:26;96545.34;;;22.17;51.66
52653;BME280;39353;42.864;12.014;2023-02-27T00:57:53;96551.23;;;22.16;51.79
52653;BME280;39353;42.864;12.014;2023-02-27T01:00:34;96551.86;;;22.14;51.65
52653;BME280;39353;42.864;12.014;2023-02-27T01:03:01;96550.59;;;22.13;51.65
52653;BME280;39353;42.864;12.014;2023-02-27T01:05:30;96546.38;;;22.11;51.57
52653;BME280;39353;42.864;12.014;2023-02-27T01:08:13;96550.62;;;22.09;51.76
52653;BME280;39353;42.864;12.014;2023-02-27T01:10:55;96552.67;;;22.07;51.81
52653;BME280;39353;42.864;12.014;2023-02-27T01:13:37;96547.52;;;22.04;51.86
52653;BME280;39353;42.864;12.014;2023-02-27T01:16:18;96548.75;;;22.03;51.83
52653;BME280;39353;42.864;12.014;2023-02-27T01:18:59;96544.04;;;22.02;51.83
52653;BME280;39353;42.864;12.014;2023-02-27T01:21:40;96547.04;;;22.01;51.90
52653;BME280;39353;42.864;12.014;2023-02-27T01:24:21;96554.08;;;22.01;51.95
52653;BME280;39353;42.864;12.014;2023-02-27T01:27:03;96553.95;;;21.99;51.97
52653;BME280;39353;42.864;12.014;2023-02-27T01:29:30;96557.94;;;21.98;51.87
52653;BME280;39353;42.864;12.014;2023-02-27T01:32:11;96558.02;;;21.97;51.79
52653;BME280;39353;42.864;12.014;2023-02-27T01:34:52;96557.52;;;21.96;51.79
52653;BME280;39353;42.864;12.014;2023-02-27T01:37:34;96551.38;;;21.94;51.79
52653;BME280;39353;42.864;12.014;2023-02-27T01:40:15;96549.29;;;21.92;51.76
52653;BME280;39353;42.864;12.014;2023-02-27T01:42:56;96543.75;;;21.91;51.84
52653;BME280;39353;42.864;12.014;2023-02-27T01:45:34;96544.23;;;21.89;51.83
52653;BME280;39353;42.864;12.014;2023-02-27T01:50:38;96553.81;;;21.87;51.84
52653;BME280;39353;42.864;12.014;2023-02-27T01:53:09;96549.91;;;21.85;51.82
52653;BME280;39353;42.864;12.014;2023-02-27T01:55:38;96552.09;;;21.84;51.98
52653;BME280;39353;42.864;12.014;2023-02-27T01:58:21;96555.64;;;21.84;51.84
52653;BME280;39353;42.864;12.014;2023-02-27T02:01:04;96550.50;;;21.83;51.95
52653;BME280;39353;42.864;12.014;2023-02-27T02:06:13;96542.22;;;21.80;51.93
52653;BME280;39353;42.864;12.014;2023-02-27T02:08:57;96538.06;;;21.80;51.94
52653;BME280;39353;42.864;12.014;2023-02-27T02:11:26;96535.88;;;21.79;51.75
52653;BME280;39353;42.864;12.014;2023-02-27T02:14:00;96547.13;;;21.79;51.62
52653;BME280;39353;42.864;12.014;2023-02-27T02:34:48;96570.17;;;21.66;52.16
52653;BME280;39353;42.864;12.014;2023-02-27T02:38:02;96575.23;;;21.65;52.00
52653;BME280;39353;42.864;12.014;2023-02-27T02:40:56;96577.35;;;21.65;52.18
52653;BME280;39353;42.864;12.014;2023-02-27T02:43:47;96578.81;;;21.64;52.19
52653;BME280;39353;42.864;12.014;2023-02-27T02:50:26;96595.89;;;21.60;52.16
52653;BME280;39353;42.864;12.014;2023-02-27T02:59:39;96598.06;;;21.57;52.06
52653;BME280;39353;42.864;12.014;2023-02-27T03:02:33;96596.34;;;21.56;52.02
52653;BME280;39353;42.864;12.014;2023-02-27T03:05:07;96604.03;;;21.56;52.05
52653;BME280;39353;42.864;12.014;2023-02-27T03:08:01;96605.98;;;21.55;52.05
52653;BME280;39353;42.864;12.014;2023-02-27T03:10:36;96609.73;;;21.54;52.00
52653;BME280;39353;42.864;12.014;2023-02-27T03:13:14;96618.09;;;21.53;52.01
52653;BME280;39353;42.864;12.014;2023-02-27T03:16:14;96619.39;;;21.53;52.11
52653;BME280;39353;42.864;12.014;2023-02-27T03:18:50;96620.68;;;21.52;52.10
52653;BME280;39353;42.864;12.014;2023-02-27T03:21:26;96622.84;;;21.50;52.25
52653;BME280;39353;42.864;12.014;2023-02-27T03:24:01;96623.73;;;21.49;52.10
